createdAt,value
2022-11-27T00:04:38.827Z,64.90
2022-11-27T00:09:41.607Z,65.83
2022-11-27T00:14:44.630Z,65.18
2022-11-27T00:19:47.302Z,64.57
2022-11-27T00:24:50.338Z,65.51
2022-11-27T00:29:53.063Z,66.09
2022-11-27T00:34:55.702Z,64.86
2022-11-27T00:39:58.305Z,65.42
2022-11-27T00:45:01.000Z,65.35
2022-11-27T00:50:04.718Z,64.10
2022-11-27T00:55:08.000Z,64.35
2022-11-27T01:00:11.249Z,65.47
2022-11-27T01:05:13.984Z,65.51
2022-11-27T01:10:16.661Z,65.59
2022-11-27T01:15:19.345Z,64.69
2022-11-27T01:20:21.983Z,64.72
2022-11-27T01:25:27.093Z,65.02
2022-11-27T01:30:29.871Z,64.87
2022-11-27T01:35:33.774Z,64.78
2022-11-27T01:40:36.739Z,65.77
2022-11-27T01:45:39.427Z,65.65
2022-11-27T01:50:42.332Z,64.52
2022-11-27T01:55:48.319Z,65.25
2022-11-27T02:00:51.217Z,65.10
2022-11-27T02:05:53.906Z,65.67
2022-11-27T02:11:05.493Z,65.32
2022-11-27T02:16:17.747Z,65.57
2022-11-27T02:21:38.842Z,65.43
2022-11-27T02:26:47.653Z,64.48
2022-11-27T02:31:59.506Z,66.00
2022-11-27T02:37:19.144Z,65.21
2022-11-27T02:42:22.165Z,65.49
2022-11-27T02:47:25.003Z,64.72
2022-11-27T02:52:28.787Z,66.12
2022-11-27T02:57:31.912Z,65.15
2022-11-27T03:02:37.765Z,64.96
2022-11-27T03:07:44.583Z,65.24
2022-11-27T03:12:48.894Z,64.75
2022-11-27T03:18:01.510Z,65.44
2022-11-27T03:23:04.227Z,64.77
2022-11-27T03:28:09.043Z,64.76
2022-11-27T03:33:11.922Z,65.38
2022-11-27T03:38:14.544Z,64.62
2022-11-27T03:43:24.822Z,65.28
2022-11-27T03:48:51.929Z,64.44
2022-11-27T03:54:03.606Z,64.79
2022-11-27T03:59:12.760Z,64.36
2022-11-27T04:04:15.791Z,64.94
2022-11-27T04:09:18.539Z,64.65
2022-11-27T04:14:21.293Z,64.06
2022-11-27T04:19:23.987Z,65.17
2022-11-27T04:24:26.667Z,65.04
2022-11-27T04:29:29.447Z,65.27
2022-11-27T04:34:33.179Z,64.36
2022-11-27T04:39:35.815Z,64.82
2022-11-27T04:44:39.089Z,64.23
2022-11-27T04:49:42.048Z,64.57
2022-11-27T04:54:44.743Z,64.30
2022-11-27T04:59:47.435Z,64.60
2022-11-27T05:04:50.146Z,64.70
2022-11-27T05:09:52.881Z,64.44
2022-11-27T05:14:55.521Z,64.86
2022-11-27T05:19:58.203Z,63.98
2022-11-27T05:25:00.923Z,64.76
2022-11-27T05:30:06.122Z,64.83
2022-11-27T05:35:09.284Z,64.79
2022-11-27T05:40:12.235Z,64.79
2022-11-27T05:45:15.595Z,64.19
2022-11-27T05:50:18.500Z,64.53
2022-11-27T05:55:21.243Z,64.78
2022-11-27T06:00:24.043Z,64.58
2022-11-27T06:05:26.781Z,64.76
2022-11-27T06:10:29.643Z,64.30
2022-11-27T06:15:32.345Z,63.98
2022-11-27T06:20:36.656Z,63.89
2022-11-27T06:25:42.404Z,63.59
2022-11-27T06:30:45.167Z,64.20
2022-11-27T06:35:47.959Z,64.60
2022-11-27T06:40:50.723Z,64.37
2022-11-27T06:45:58.049Z,64.61
2022-11-27T06:51:05.911Z,64.67
2022-11-27T06:56:11.414Z,63.95
2022-11-27T07:01:17.374Z,64.66
2022-11-27T07:06:22.288Z,64.88
2022-11-27T07:11:27.511Z,64.84
2022-11-27T07:16:32.705Z,64.93
2022-11-27T07:21:37.696Z,65.47
2022-11-27T07:26:40.813Z,65.33
2022-11-27T07:31:43.502Z,64.91
2022-11-27T07:36:46.321Z,64.93
2022-11-27T07:41:48.929Z,64.44
2022-11-27T07:46:51.619Z,65.02
2022-11-27T07:51:54.281Z,65.25
2022-11-27T07:56:57.020Z,64.99
2022-11-27T08:01:59.710Z,64.05
2022-11-27T08:07:02.453Z,65.33
2022-11-27T08:12:05.478Z,65.29
2022-11-27T08:17:08.113Z,65.33
2022-11-27T08:22:16.465Z,64.21
2022-11-27T08:27:19.181Z,64.03
2022-11-27T08:32:21.914Z,64.35
2022-11-27T08:37:24.719Z,64.06
2022-11-27T08:42:27.372Z,64.17
2022-11-27T08:47:30.071Z,65.08
2022-11-27T08:52:33.145Z,64.16
2022-11-27T08:57:36.630Z,65.01
2022-11-27T09:02:39.501Z,64.65
2022-11-27T09:07:42.295Z,64.58
2022-11-27T09:12:45.071Z,64.27
2022-11-27T09:17:47.784Z,64.78
2022-11-27T09:22:50.492Z,65.05
2022-11-27T09:27:53.301Z,64.56
2022-11-27T09:32:56.136Z,65.19
2022-11-27T09:37:59.330Z,65.04
2022-11-27T09:43:10.091Z,64.78
2022-11-27T09:48:19.623Z,65.46
2022-11-27T09:53:28.531Z,64.64
2022-11-27T09:58:39.626Z,65.54
2022-11-27T10:03:43.649Z,65.64
2022-11-27T10:08:52.203Z,64.85
2022-11-27T10:14:22.863Z,65.81
2022-11-27T10:20:16.871Z,65.73
2022-11-27T10:25:30.321Z,65.23
2022-11-27T10:30:33.897Z,65.62
2022-11-27T10:35:36.624Z,65.22
2022-11-27T10:41:34.385Z,65.50
2022-11-27T10:46:38.573Z,65.79
2022-11-27T10:51:42.016Z,65.70
2022-11-27T10:57:01.468Z,65.11
2022-11-27T11:02:05.933Z,65.17
2022-11-27T11:07:26.736Z,65.84
2022-11-27T11:12:29.423Z,65.29
2022-11-27T11:17:38.646Z,64.95
2022-11-27T11:22:46.677Z,64.61
2022-11-27T11:27:50.687Z,64.89
2022-11-27T11:33:08.432Z,64.92
2022-11-27T11:38:19.032Z,65.15
2022-11-27T11:43:29.229Z,65.27
2022-11-27T11:48:31.964Z,64.77
2022-11-27T11:53:47.248Z,64.73
2022-11-27T11:59:03.356Z,64.71
2022-11-27T12:04:30.860Z,65.03
2022-11-27T12:10:04.206Z,64.97
2022-11-27T12:15:31.415Z,65.00
2022-11-27T12:20:37.164Z,64.63
2022-11-27T12:25:56.989Z,64.99
2022-11-27T12:31:30.510Z,65.42
2022-11-27T12:37:19.333Z,65.01
2022-11-27T12:42:29.845Z,65.57
2022-11-27T12:47:52.872Z,65.29
2022-11-27T12:53:16.732Z,65.32
2022-11-27T12:58:28.457Z,65.34
2022-11-27T13:03:54.180Z,65.48
2022-11-27T13:09:01.687Z,65.75
2022-11-27T13:14:17.930Z,65.59
2022-11-27T13:19:33.786Z,65.80
2022-11-27T13:24:36.626Z,65.85
2022-11-27T13:29:53.507Z,65.85
2022-11-27T13:34:59.303Z,65.41
2022-11-27T13:40:21.602Z,65.65
2022-11-27T13:45:29.812Z,65.76
2022-11-27T13:50:43.710Z,65.87
2022-11-27T13:55:54.962Z,65.95
2022-11-27T14:00:58.174Z,65.71
2022-11-27T14:06:00.923Z,65.92
2022-11-27T14:11:09.157Z,65.50
2022-11-27T14:16:28.550Z,65.80
2022-11-27T14:21:39.619Z,65.66
2022-11-27T14:26:42.418Z,65.72
2022-11-27T14:31:45.163Z,65.47
2022-11-27T14:36:52.859Z,66.21
2022-11-27T14:42:18.266Z,65.83
2022-11-27T14:47:23.170Z,65.90
2022-11-27T14:52:26.050Z,66.14
2022-11-27T14:57:29.672Z,66.26
2022-11-27T15:02:32.848Z,66.45
2022-11-27T15:07:45.240Z,66.48
2022-11-27T15:12:49.932Z,65.69
2022-11-27T15:18:01.826Z,66.69
2022-11-27T15:23:05.152Z,66.40
2022-11-27T15:28:30.778Z,66.42
2022-11-27T15:33:34.392Z,66.01
2022-11-27T15:38:37.224Z,66.11
2022-11-27T15:43:39.835Z,66.50
2022-11-27T15:48:42.511Z,66.43
2022-11-27T15:53:45.540Z,66.28
2022-11-27T15:58:48.326Z,66.10
2022-11-27T16:03:50.959Z,65.45
2022-11-27T16:08:57.045Z,65.26
2022-11-27T16:13:59.815Z,65.16
2022-11-27T16:19:04.358Z,65.21
2022-11-27T16:24:08.427Z,65.30
2022-11-27T16:29:11.360Z,65.29
2022-11-27T16:34:15.664Z,65.52
2022-11-27T16:39:18.737Z,65.16
2022-11-27T16:44:21.431Z,64.83
2022-11-27T16:49:26.424Z,64.59
2022-11-27T16:54:29.207Z,64.99
2022-11-27T16:59:32.426Z,64.63
2022-11-27T17:04:35.610Z,64.35
2022-11-27T17:09:39.028Z,64.75
2022-11-27T17:14:43.543Z,64.25
2022-11-27T17:19:49.414Z,64.62
2022-11-27T17:24:55.637Z,63.81
2022-11-27T17:29:58.292Z,64.36
2022-11-27T17:35:01.340Z,64.09
2022-11-27T17:40:05.780Z,64.52
2022-11-27T17:45:08.885Z,63.68
2022-11-27T17:50:11.832Z,64.23
2022-11-27T17:55:14.571Z,63.85
2022-11-27T18:00:19.095Z,63.46
2022-11-27T18:05:21.777Z,63.99
2022-11-27T18:10:24.558Z,64.19
2022-11-27T18:15:28.206Z,64.38
2022-11-27T18:20:31.603Z,63.54
2022-11-27T18:25:34.409Z,63.27
2022-11-27T18:30:37.075Z,64.21
2022-11-27T18:35:43.327Z,63.93
2022-11-27T18:40:46.459Z,63.81
2022-11-27T18:45:49.064Z,63.42
2022-11-27T18:50:52.227Z,64.13
2022-11-27T18:56:01.347Z,64.09
2022-11-27T19:01:10.224Z,63.86
2022-11-27T19:06:15.276Z,63.63
2022-11-27T19:11:20.777Z,64.24
2022-11-27T19:16:26.727Z,64.15
2022-11-27T19:21:30.795Z,64.39
2022-11-27T19:26:35.399Z,63.94
2022-11-27T19:31:40.341Z,64.19
2022-11-27T19:36:44.482Z,64.21
2022-11-27T19:41:47.951Z,63.69
2022-11-27T19:46:50.684Z,64.27
2022-11-27T19:51:53.739Z,64.59
2022-11-27T19:56:56.536Z,63.81
2022-11-27T20:01:59.341Z,64.55
2022-11-27T20:07:04.310Z,64.76
2022-11-27T20:12:06.978Z,63.79
2022-11-27T20:17:10.150Z,64.36
2022-11-27T20:22:13.305Z,63.80
2022-11-27T20:27:16.194Z,64.72
2022-11-27T20:32:18.858Z,64.58
2022-11-27T20:37:21.793Z,63.92
2022-11-27T20:42:24.861Z,64.05
2022-11-27T20:47:28.692Z,64.88
2022-11-27T20:52:31.586Z,63.96
2022-11-27T20:57:35.092Z,63.94
2022-11-27T21:02:43.417Z,64.66
2022-11-27T21:07:46.337Z,64.08
2022-11-27T21:12:49.188Z,63.68
2022-11-27T21:17:52.420Z,63.59
2022-11-27T21:22:55.220Z,64.02
2022-11-27T21:27:59.552Z,63.46
2022-11-27T21:33:03.739Z,64.64
2022-11-27T21:38:06.494Z,63.85
2022-11-27T21:43:09.148Z,64.50
2022-11-27T21:48:14.765Z,64.46
2022-11-27T21:53:17.421Z,64.77
2022-11-27T21:58:20.071Z,64.07
2022-11-27T22:03:23.000Z,64.27
2022-11-27T22:08:25.986Z,64.58
2022-11-27T22:13:30.450Z,63.80
2022-11-27T22:18:33.037Z,64.58
2022-11-27T22:23:36.295Z,63.72
2022-11-27T22:28:39.476Z,64.73
2022-11-27T22:33:42.681Z,63.64
2022-11-27T22:38:46.314Z,63.40
2022-11-27T22:43:50.175Z,63.78
2022-11-27T22:48:58.522Z,64.15
2022-11-27T22:54:02.401Z,63.75
2022-11-27T22:59:30.983Z,64.56
2022-11-27T23:04:29.513Z,64.06
2022-11-27T23:09:34.320Z,64.40
2022-11-27T23:14:37.108Z,63.46
2022-11-27T23:19:39.767Z,64.38
2022-11-27T23:24:42.720Z,63.68
2022-11-27T23:29:45.688Z,64.26
2022-11-27T23:34:48.377Z,64.18
2022-11-27T23:39:51.202Z,63.95
2022-11-27T23:44:53.914Z,64.46
2022-11-27T23:49:56.612Z,63.15
2022-11-27T23:54:59.278Z,63.48
